Time;durP1;ratioP1;P1;durP2;ratioP2;P2;SDS_P1;SDS_P2;PMS_P1;PMS_P2;Temp;Humidity;BMP_temperature;BMP_pressure;BME280_temperature;BME280_humidity;BME280_pressure;Samples;Min_cycle;Max_cycle;Signal;HPM_P1;HPM_P2
2022/01/14 00:00:08;;;;;;;;;;;-2.80;99.90;;;;;;4953067;28;19926;-74
2022/01/14 00:02:34;;;;;;;;;;;-2.80;99.90;;;;;;4954669;28;20293;-72
2022/01/14 00:05:07;;;;;;;;;;;-2.80;99.90;;;;;;4959438;28;19926;-74
2022/01/14 00:07:37;;;;;;;;;;;-2.70;99.90;;;;;;5022781;28;19968;-73
2022/01/14 00:10:04;;;;;;;;;;;-2.70;99.90;;;;;;5018481;28;19932;-74
2022/01/14 00:12:36;;;;;;;;;;;-2.70;99.90;;;;;;4979455;28;19982;-74
2022/01/14 00:15:24;;;;;;;;;;;-2.70;99.90;;;;;;4975486;28;19926;-75
2022/01/14 00:17:56;;;;;;;;;;;-2.80;99.90;;;;;;4990256;28;20427;-74
2022/01/14 00:20:22;;;;;;;;;;;-2.80;99.90;;;;;;5002090;28;20397;-75
2022/01/14 00:22:54;;;;;;;;;;;-2.90;99.90;;;;;;5069016;28;20399;-74
2022/01/14 00:33:36;;;;;;;;;;;-3.00;99.90;;;;;;4955078;28;20028;-74
2022/01/14 00:36:08;;;;;;;;;;;-3.00;99.90;;;;;;5002781;28;19926;-74
2022/01/14 00:38:35;;;;;;;;;;;-3.10;99.90;;;;;;4992515;28;20005;-73
2022/01/14 00:41:01;;;;;;;;;;;-3.10;99.90;;;;;;4993299;28;19932;-73
2022/01/14 00:43:33;;;;;;;;;;;-3.10;99.90;;;;;;5011164;28;20029;-74
2022/01/14 00:46:00;;;;;;;;;;;-3.10;99.90;;;;;;4994175;28;20033;-74
2022/01/14 00:48:31;;;;;;;;;;;-3.10;99.90;;;;;;5011419;28;19925;-74
2022/01/14 00:51:03;;;;;;;;;;;-3.20;99.90;;;;;;4994713;28;19925;-74
2022/01/14 00:53:35;;;;;;;;;;;-3.10;99.90;;;;;;4994049;28;19964;-74
2022/01/14 00:56:19;;;;;;;;;;;-3.10;99.90;;;;;;4978165;28;19929;-74
2022/01/14 01:01:43;;;;;;;;;;;-3.10;99.90;;;;;;5011206;28;19945;-71
2022/01/14 01:04:11;;;;;;;;;;;-3.10;99.90;;;;;;4992943;28;19968;-73
2022/01/14 01:06:43;;;;;;;;;;;-3.10;99.90;;;;;;4994516;28;20032;-73
2022/01/14 01:09:15;;;;;;;;;;;-3.00;99.90;;;;;;4994480;28;19926;-74
2022/01/14 01:14:41;;;;;;;;;;;-3.00;99.90;;;;;;5009502;28;20024;-73
2022/01/14 01:17:13;;;;;;;;;;;-3.00;99.90;;;;;;5010575;28;20036;-73
2022/01/14 01:19:45;;;;;;;;;;;-3.00;99.90;;;;;;4994188;28;20028;-74
2022/01/14 01:22:17;;;;;;;;;;;-3.00;99.90;;;;;;5010906;28;20404;-74
2022/01/14 01:25:02;;;;;;;;;;;-3.10;99.90;;;;;;4979734;28;19926;-72
2022/01/14 01:27:38;;;;;;;;;;;-3.10;99.90;;;;;;5010302;28;20028;-72
2022/01/14 01:30:16;;;;;;;;;;;-3.10;99.90;;;;;;5010736;28;20273;-72
2022/01/14 01:32:48;;;;;;;;;;;-3.10;99.90;;;;;;4993634;28;20080;-72
2022/01/14 01:35:20;;;;;;;;;;;-3.10;99.90;;;;;;4992966;28;20630;-74
2022/01/14 01:37:47;;;;;;;;;;;-3.10;99.90;;;;;;4993100;28;19969;-73
2022/01/14 01:40:14;;;;;;;;;;;-3.20;99.90;;;;;;4992983;28;20008;-74
2022/01/14 01:42:45;;;;;;;;;;;-3.20;99.90;;;;;;4993005;28;19989;-72
2022/01/14 01:45:22;;;;;;;;;;;-3.30;99.90;;;;;;4993123;28;19930;-74
2022/01/14 01:47:54;;;;;;;;;;;-3.30;99.90;;;;;;4993907;28;19952;-74
2022/01/14 01:50:27;;;;;;;;;;;-3.20;99.90;;;;;;4992787;28;19926;-73
2022/01/14 01:52:54;;;;;;;;;;;-3.20;99.90;;;;;;4992432;28;20033;-73
2022/01/14 01:55:22;;;;;;;;;;;-3.20;99.90;;;;;;4992652;28;20367;-74
2022/01/14 01:57:49;;;;;;;;;;;-3.20;99.90;;;;;;4993084;28;20356;-74
2022/01/14 02:00:22;;;;;;;;;;;-3.20;99.90;;;;;;4993273;28;19932;-74
2022/01/14 02:02:56;;;;;;;;;;;-3.30;99.90;;;;;;5009403;28;19932;-74
2022/01/14 02:05:23;;;;;;;;;;;-3.30;99.90;;;;;;4992507;28;20016;-73
2022/01/14 02:07:49;;;;;;;;;;;-3.30;99.90;;;;;;5009776;28;20016;-74
2022/01/14 02:10:22;;;;;;;;;;;-3.30;99.90;;;;;;4992222;28;19926;-74
2022/01/14 02:12:52;;;;;;;;;;;-3.30;99.90;;;;;;4975450;28;19951;-74
2022/01/14 02:15:30;;;;;;;;;;;-3.40;99.90;;;;;;4991893;28;19932;-74
2022/01/14 02:23:34;;;;;;;;;;;-3.40;99.90;;;;;;4991440;28;19926;-74
2022/01/14 02:26:06;;;;;;;;;;;-3.40;99.90;;;;;;4976089;28;20028;-72
2022/01/14 02:28:33;;;;;;;;;;;-3.40;99.90;;;;;;4991978;28;20020;-74
2022/01/14 02:31:00;;;;;;;;;;;-3.40;99.90;;;;;;4992090;28;19944;-73
2022/01/14 02:33:31;;;;;;;;;;;-3.40;99.90;;;;;;4991581;28;20017;-74
2022/01/14 02:36:03;;;;;;;;;;;-3.30;99.90;;;;;;4992350;28;20024;-74
2022/01/14 02:38:36;;;;;;;;;;;-3.40;99.90;;;;;;4993082;28;19976;-74
2022/01/14 02:41:02;;;;;;;;;;;-3.30;99.90;;;;;;4992384;28;19925;-72
2022/01/14 02:43:29;;;;;;;;;;;-3.40;99.90;;;;;;4991296;28;20459;-74
2022/01/14 02:46:01;;;;;;;;;;;-3.40;99.90;;;;;;4991549;28;20020;-71
2022/01/14 02:48:32;;;;;;;;;;;-3.40;99.90;;;;;;4991381;28;19926;-74
2022/01/14 02:51:13;;;;;;;;;;;-3.50;99.90;;;;;;4975933;28;19925;-74
2022/01/14 02:53:57;;;;;;;;;;;-3.50;99.90;;;;;;5008397;28;19936;-74
2022/01/14 02:56:30;;;;;;;;;;;-3.50;99.90;;;;;;4976281;28;19925;-74
2022/01/14 02:58:57;;;;;;;;;;;-3.60;99.90;;;;;;4991761;28;20394;-74
2022/01/14 03:01:25;;;;;;;;;;;-3.60;99.90;;;;;;5009423;28;20024;-72
2022/01/14 03:03:58;;;;;;;;;;;-3.70;99.90;;;;;;5008916;28;20439;-74
2022/01/14 03:06:26;;;;;;;;;;;-3.70;99.90;;;;;;5009308;28;20016;-74
2022/01/14 03:08:57;;;;;;;;;;;-3.70;99.90;;;;;;4991646;28;19935;-74
2022/01/14 03:11:30;;;;;;;;;;;-3.60;99.90;;;;;;4991772;28;20776;-74
2022/01/14 03:14:03;;;;;;;;;;;-3.60;99.90;;;;;;5008863;28;20028;-74
2022/01/14 03:16:37;;;;;;;;;;;-3.60;99.90;;;;;;4975507;28;19929;-74
2022/01/14 03:19:11;;;;;;;;;;;-3.60;99.90;;;;;;4991631;28;19965;-73
2022/01/14 03:21:42;;;;;;;;;;;-3.70;99.90;;;;;;5009107;28;20028;-74
2022/01/14 03:25:36;;;;;;;;;;;-3.70;99.90;;;;;;4992145;28;19932;-74
2022/01/14 03:27:14;;;;;;;;;;;-3.70;99.90;;;;;;4991669;28;19926;-74
2022/01/14 03:29:46;;;;;;;;;;;-3.60;99.90;;;;;;5008853;28;20028;-74
2022/01/14 03:32:13;;;;;;;;;;;-3.60;99.90;;;;;;4991340;28;19926;-74
2022/01/14 03:34:40;;;;;;;;;;;-3.60;99.90;;;;;;4974881;28;19925;-73
2022/01/14 03:37:07;;;;;;;;;;;-3.60;99.90;;;;;;4976980;28;19925;-74
2022/01/14 03:39:33;;;;;;;;;;;-3.60;99.90;;;;;;4994718;28;19929;-74
2022/01/14 03:42:05;;;;;;;;;;;-3.50;99.90;;;;;;4995684;28;19925;-74
2022/01/14 03:44:32;;;;;;;;;;;-3.60;99.90;;;;;;4978185;28;20402;-74
2022/01/14 03:47:04;;;;;;;;;;;-3.60;99.90;;;;;;4995663;28;19925;-74
2022/01/14 03:49:35;;;;;;;;;;;-3.60;99.90;;;;;;4995627;28;20024;-74
2022/01/14 03:52:07;;;;;;;;;;;-3.60;99.90;;;;;;4995654;28;20020;-72
2022/01/14 03:54:34;;;;;;;;;;;-3.70;99.90;;;;;;4994460;28;20295;-74
2022/01/14 03:57:01;;;;;;;;;;;-3.70;99.90;;;;;;4978538;28;20037;-74
2022/01/14 03:59:32;;;;;;;;;;;-3.80;99.90;;;;;;4979103;28;20463;-74
2022/01/14 04:02:04;;;;;;;;;;;-3.90;99.90;;;;;;4995489;28;19925;-74
2022/01/14 04:04:31;;;;;;;;;;;-3.90;99.90;;;;;;5011783;28;19975;-74
2022/01/14 04:07:04;;;;;;;;;;;-3.90;99.90;;;;;;5012073;28;20384;-74
2022/01/14 04:09:36;;;;;;;;;;;-3.90;99.90;;;;;;4978271;28;19956;-74
2022/01/14 04:12:04;;;;;;;;;;;-4.00;99.90;;;;;;4994346;28;19932;-73
2022/01/14 04:16:58;;;;;;;;;;;-4.00;99.90;;;;;;4994243;28;19925;-74
2022/01/14 04:19:30;;;;;;;;;;;-3.90;99.90;;;;;;4978824;28;19961;-74
2022/01/14 04:22:02;;;;;;;;;;;-4.00;99.90;;;;;;4994274;28;20027;-74
2022/01/14 04:24:28;;;;;;;;;;;-4.00;99.90;;;;;;4993822;28;19929;-74
2022/01/14 04:27:00;;;;;;;;;;;-4.00;99.90;;;;;;5011749;28;20405;-74
2022/01/14 04:29:32;;;;;;;;;;;-4.00;99.90;;;;;;4993896;28;19932;-72
2022/01/14 04:31:59;;;;;;;;;;;-4.00;99.90;;;;;;5011796;28;19930;-74
2022/01/14 04:34:31;;;;;;;;;;;-4.00;99.90;;;;;;4994405;28;19933;-74
2022/01/14 04:36:58;;;;;;;;;;;-4.00;99.90;;;;;;4993941;28;19975;-74
2022/01/14 04:39:29;;;;;;;;;;;-4.00;99.90;;;;;;4978730;28;19969;-74
2022/01/14 04:42:01;;;;;;;;;;;-3.90;99.90;;;;;;5011583;28;19967;-74
2022/01/14 04:44:28;;;;;;;;;;;-3.90;99.90;;;;;;4993732;28;19952;-74
2022/01/14 04:47:13;;;;;;;;;;;-3.80;99.90;;;;;;4993894;28;19925;-74
2022/01/14 04:49:39;;;;;;;;;;;-3.80;99.90;;;;;;4977430;28;20023;-73
2022/01/14 04:52:11;;;;;;;;;;;-3.80;99.90;;;;;;4993207;28;19930;-73
2022/01/14 04:54:38;;;;;;;;;;;-3.70;99.90;;;;;;4992732;28;20036;-74
2022/01/14 04:57:10;;;;;;;;;;;-3.70;99.90;;;;;;4977552;28;19925;-73
2022/01/14 04:59:36;;;;;;;;;;;-3.70;99.90;;;;;;4993253;28;19957;-74
2022/01/14 05:02:03;;;;;;;;;;;-3.70;99.90;;;;;;4973640;28;19941;-74
2022/01/14 05:04:30;;;;;;;;;;;-3.70;99.90;;;;;;4976259;28;19925;-72
2022/01/14 05:07:01;;;;;;;;;;;-3.70;99.90;;;;;;4977765;28;19974;-75
2022/01/14 05:09:35;;;;;;;;;;;-3.70;99.90;;;;;;4985532;28;20400;-73
2022/01/14 05:12:09;;;;;;;;;;;-3.60;99.90;;;;;;4989589;28;19930;-76
2022/01/14 05:14:41;;;;;;;;;;;-3.60;99.90;;;;;;4990676;28;20016;-74
2022/01/14 05:17:13;;;;;;;;;;;-3.60;99.90;;;;;;4967380;28;20282;-74
2022/01/14 05:19:40;;;;;;;;;;;-3.60;99.90;;;;;;4974001;28;19973;-74
2022/01/14 05:22:11;;;;;;;;;;;-3.60;99.90;;;;;;4971380;28;20016;-73
2022/01/14 05:24:38;;;;;;;;;;;-3.60;99.90;;;;;;4956953;28;20025;-74
2022/01/14 05:27:05;;;;;;;;;;;-3.60;99.90;;;;;;4957400;28;20020;-74
2022/01/14 05:29:36;;;;;;;;;;;-3.70;99.90;;;;;;4990340;28;20292;-74
2022/01/14 05:32:12;;;;;;;;;;;-3.70;99.90;;;;;;4973275;28;19934;-74
2022/01/14 05:34:40;;;;;;;;;;;-3.70;99.90;;;;;;4973305;28;19979;-74
2022/01/14 05:37:07;;;;;;;;;;;-3.70;99.90;;;;;;4990560;28;20377;-74
2022/01/14 05:39:34;;;;;;;;;;;-3.70;99.90;;;;;;4989666;28;19947;-75
2022/01/14 05:42:06;;;;;;;;;;;-3.70;99.90;;;;;;4988601;28;19932;-74
2022/01/14 05:44:33;;;;;;;;;;;-3.70;99.90;;;;;;4973010;28;19963;-73
2022/01/14 05:47:00;;;;;;;;;;;-3.70;99.90;;;;;;4980214;28;19926;-74
2022/01/14 05:49:32;;;;;;;;;;;-3.60;99.90;;;;;;5009920;28;20012;-73
2022/01/14 05:51:59;;;;;;;;;;;-3.60;99.90;;;;;;4977192;28;20027;-74
2022/01/14 05:54:25;;;;;;;;;;;-3.60;99.90;;;;;;5078577;28;20363;-73
2022/01/14 05:56:52;;;;;;;;;;;-3.60;99.90;;;;;;5033229;28;20090;-74
2022/01/14 05:59:19;;;;;;;;;;;-3.70;99.90;;;;;;5019755;28;20407;-74
2022/01/14 06:01:50;;;;;;;;;;;-3.70;99.90;;;;;;5033065;28;19946;-73
2022/01/14 06:04:17;;;;;;;;;;;-3.80;99.90;;;;;;5024048;28;20028;-74
2022/01/14 06:06:44;;;;;;;;;;;-3.90;99.90;;;;;;5108710;28;19928;-71
2022/01/14 06:09:10;;;;;;;;;;;-3.90;99.90;;;;;;5096493;28;20011;-73
2022/01/14 06:11:42;;;;;;;;;;;-3.90;99.90;;;;;;4981584;28;19961;-72
2022/01/14 06:14:09;;;;;;;;;;;-3.90;99.90;;;;;;4975213;28;20040;-73
2022/01/14 06:16:42;;;;;;;;;;;-3.90;99.90;;;;;;5042509;28;19929;-74
2022/01/14 06:19:08;;;;;;;;;;;-3.80;99.90;;;;;;4971531;28;19926;-74
2022/01/14 06:21:40;;;;;;;;;;;-3.80;99.90;;;;;;4973361;28;19926;-74
2022/01/14 06:24:06;;;;;;;;;;;-3.80;99.90;;;;;;4988318;28;19969;-74
2022/01/14 06:26:38;;;;;;;;;;;-3.80;99.90;;;;;;4988632;28;19925;-74
2022/01/14 06:29:05;;;;;;;;;;;-3.80;99.90;;;;;;4972544;28;19968;-74
2022/01/14 06:31:36;;;;;;;;;;;-3.70;99.90;;;;;;5073953;28;19932;-74
2022/01/14 06:34:08;;;;;;;;;;;-3.80;99.90;;;;;;4988284;28;19940;-73
2022/01/14 06:36:35;;;;;;;;;;;-3.80;99.90;;;;;;4990088;28;19930;-74
2022/01/14 06:39:06;;;;;;;;;;;-3.70;99.90;;;;;;4988179;28;19932;-73
2022/01/14 06:41:38;;;;;;;;;;;-3.70;99.90;;;;;;5017652;28;19929;-73
2022/01/14 06:44:10;;;;;;;;;;;-3.80;99.90;;;;;;5003971;28;19926;-74
2022/01/14 06:46:41;;;;;;;;;;;-3.80;99.90;;;;;;5057624;28;19924;-73
2022/01/14 06:49:13;;;;;;;;;;;-3.80;99.90;;;;;;5039597;28;19968;-74
2022/01/14 06:51:44;;;;;;;;;;;-3.80;99.90;;;;;;4972800;28;20017;-71
2022/01/14 06:54:16;;;;;;;;;;;-3.80;99.90;;;;;;4953701;28;20312;-74
2022/01/14 06:56:43;;;;;;;;;;;-3.80;99.90;;;;;;5060234;28;19928;-73
2022/01/14 06:59:10;;;;;;;;;;;-3.80;99.90;;;;;;5020537;28;20375;-74
2022/01/14 07:01:36;;;;;;;;;;;-3.80;99.90;;;;;;4987227;28;20028;-74
2022/01/14 07:04:08;;;;;;;;;;;-3.80;99.90;;;;;;4992882;28;20009;-73
2022/01/14 07:06:35;;;;;;;;;;;-3.90;99.90;;;;;;4996495;28;19934;-73
2022/01/14 07:09:06;;;;;;;;;;;-3.90;99.90;;;;;;5003788;28;19933;-74
2022/01/14 07:11:38;;;;;;;;;;;-3.80;99.90;;;;;;5040217;28;19949;-73
2022/01/14 07:14:05;;;;;;;;;;;-3.90;99.90;;;;;;4952649;28;19933;-72
2022/01/14 07:16:36;;;;;;;;;;;-3.90;99.90;;;;;;4978014;28;20013;-72
2022/01/14 07:19:08;;;;;;;;;;;-3.80;99.90;;;;;;5000295;28;19926;-73
2022/01/14 07:21:40;;;;;;;;;;;-3.80;99.90;;;;;;5091050;28;19930;-72
2022/01/14 07:24:13;;;;;;;;;;;-3.80;99.90;;;;;;5056923;28;19931;-72
2022/01/14 07:26:46;;;;;;;;;;;-3.80;99.90;;;;;;5056602;28;19924;-73
2022/01/14 07:29:18;;;;;;;;;;;-3.80;99.90;;;;;;5072239;28;19931;-72
2022/01/14 07:31:45;;;;;;;;;;;-3.80;99.90;;;;;;5069074;28;20022;-71
2022/01/14 07:34:16;;;;;;;;;;;-3.80;99.90;;;;;;5018984;28;19936;-72
2022/01/14 07:36:43;;;;;;;;;;;-3.80;99.90;;;;;;4989198;28;20064;-72
2022/01/14 07:39:10;;;;;;;;;;;-3.70;99.90;;;;;;5014460;28;19968;-72
2022/01/14 07:41:41;;;;;;;;;;;-3.70;99.90;;;;;;5003163;28;20545;-71
2022/01/14 07:44:09;;;;;;;;;;;-3.70;99.90;;;;;;5015017;28;19935;-71
2022/01/14 07:46:41;;;;;;;;;;;-3.70;99.90;;;;;;5031786;28;19925;-72
2022/01/14 07:49:08;;;;;;;;;;;-3.60;99.90;;;;;;4990994;28;20024;-71
2022/01/14 07:51:34;;;;;;;;;;;-3.60;99.90;;;;;;5023832;28;20017;-72
2022/01/14 07:54:06;;;;;;;;;;;-3.60;99.90;;;;;;5047945;28;20082;-73
2022/01/14 07:56:39;;;;;;;;;;;-3.50;99.90;;;;;;5034994;28;20032;-72
2022/01/14 07:59:12;;;;;;;;;;;-3.50;99.90;;;;;;4979642;28;19926;-72
2022/01/14 08:01:44;;;;;;;;;;;-3.50;99.90;;;;;;5054043;28;19926;-76
2022/01/14 08:04:18;;;;;;;;;;;-3.40;99.90;;;;;;4992209;28;20432;-72
2022/01/14 08:06:52;;;;;;;;;;;-3.40;99.90;;;;;;4971750;28;19948;-72
2022/01/14 08:09:24;;;;;;;;;;;-3.40;99.90;;;;;;4996697;28;19925;-72
2022/01/14 08:11:50;;;;;;;;;;;-3.40;99.90;;;;;;5013445;28;19933;-72
2022/01/14 08:14:22;;;;;;;;;;;-3.40;99.90;;;;;;5009268;28;19924;-71
2022/01/14 08:16:49;;;;;;;;;;;-3.30;99.90;;;;;;4979253;28;19930;-72
2022/01/14 08:19:20;;;;;;;;;;;-3.30;99.90;;;;;;4997057;28;19934;-72
2022/01/14 08:21:52;;;;;;;;;;;-3.30;99.90;;;;;;4990982;28;20017;-72
2022/01/14 08:24:24;;;;;;;;;;;-3.20;99.90;;;;;;4975902;28;19948;-72
2022/01/14 08:26:50;;;;;;;;;;;-3.20;99.90;;;;;;4988583;28;20295;-73
2022/01/14 08:29:22;;;;;;;;;;;-3.10;99.90;;;;;;4992225;28;19925;-72
2022/01/14 08:31:55;;;;;;;;;;;-3.10;99.90;;;;;;4990908;28;19938;-72
2022/01/14 08:34:27;;;;;;;;;;;-3.00;99.90;;;;;;4990857;28;19936;-72
2022/01/14 08:36:59;;;;;;;;;;;-2.90;99.90;;;;;;4987197;28;19929;-72
2022/01/14 08:39:25;;;;;;;;;;;-2.90;99.90;;;;;;4982747;28;20020;-72
2022/01/14 08:41:58;;;;;;;;;;;-2.80;99.90;;;;;;4974192;28;20011;-72
2022/01/14 08:44:30;;;;;;;;;;;-2.80;99.90;;;;;;4964081;28;20372;-72
2022/01/14 08:47:02;;;;;;;;;;;-2.70;99.90;;;;;;4976549;28;19929;-74
2022/01/14 08:49:34;;;;;;;;;;;-2.70;99.90;;;;;;5006002;28;19940;-72
2022/01/14 08:52:06;;;;;;;;;;;-2.60;99.90;;;;;;5005341;28;19926;-72
2022/01/14 08:54:34;;;;;;;;;;;-2.60;99.90;;;;;;5044751;28;20765;-72
2022/01/14 08:57:05;;;;;;;;;;;-2.50;99.90;;;;;;4978776;28;20392;-72
2022/01/14 08:59:32;;;;;;;;;;;-2.50;99.90;;;;;;5077917;28;20014;-71
2022/01/14 09:02:07;;;;;;;;;;;-2.40;99.90;;;;;;4993942;28;19926;-72
2022/01/14 09:04:38;;;;;;;;;;;-2.40;99.90;;;;;;5032852;28;19940;-72
2022/01/14 09:07:10;;;;;;;;;;;-2.30;99.90;;;;;;5006997;28;19927;-72
2022/01/14 09:09:42;;;;;;;;;;;-2.30;99.90;;;;;;4995514;28;19926;-72
2022/01/14 09:12:15;;;;;;;;;;;-2.30;99.90;;;;;;5006432;28;19933;-72
2022/01/14 09:14:42;;;;;;;;;;;-2.20;99.90;;;;;;4995581;28;19975;-72
2022/01/14 09:17:09;;;;;;;;;;;-2.10;99.90;;;;;;4988019;28;19934;-72
2022/01/14 09:19:41;;;;;;;;;;;-2.10;99.90;;;;;;4972628;28;20311;-71
2022/01/14 09:22:16;;;;;;;;;;;-2.00;99.90;;;;;;4995316;28;19932;-72
2022/01/14 09:24:45;;;;;;;;;;;-2.00;99.90;;;;;;5019660;28;20028;-72
2022/01/14 09:27:12;;;;;;;;;;;-1.90;99.90;;;;;;4979028;28;20038;-72
2022/01/14 09:29:44;;;;;;;;;;;-1.80;99.90;;;;;;4990969;28;19926;-72
2022/01/14 09:32:11;;;;;;;;;;;-1.70;99.90;;;;;;4971976;28;19936;-72
2022/01/14 09:34:42;;;;;;;;;;;-1.70;99.90;;;;;;4978915;28;19926;-74
2022/01/14 09:37:14;;;;;;;;;;;-1.60;99.90;;;;;;5043286;28;19987;-71
2022/01/14 09:39:47;;;;;;;;;;;-1.60;99.90;;;;;;5058989;28;19932;-71
2022/01/14 09:42:15;;;;;;;;;;;-1.50;99.90;;;;;;5092951;28;20333;-71
2022/01/14 09:44:43;;;;;;;;;;;-1.40;99.90;;;;;;5092917;28;19951;-72
2022/01/14 09:47:15;;;;;;;;;;;-1.40;99.90;;;;;;5044800;28;20451;-72
2022/01/14 09:49:42;;;;;;;;;;;-1.30;99.90;;;;;;4973146;28;20367;-72
2022/01/14 09:52:14;;;;;;;;;;;-1.30;99.90;;;;;;4990632;28;19926;-73
2022/01/14 09:54:47;;;;;;;;;;;-1.20;99.90;;;;;;4972722;28;19933;-73
2022/01/14 09:57:18;;;;;;;;;;;-1.10;99.90;;;;;;5011559;28;20365;-72
2022/01/14 09:59:50;;;;;;;;;;;-1.00;99.90;;;;;;4979534;28;19926;-74
2022/01/14 10:02:32;;;;;;;;;;;-0.90;99.90;;;;;;5018643;28;19977;-71
2022/01/14 10:05:05;;;;;;;;;;;-0.80;99.90;;;;;;5045127;28;19926;-72
2022/01/14 10:07:37;;;;;;;;;;;-0.70;99.90;;;;;;4960426;28;19926;-72
2022/01/14 10:10:23;;;;;;;;;;;-0.60;99.90;;;;;;5011331;28;19925;-72
2022/01/14 10:13:08;;;;;;;;;;;-0.60;99.90;;;;;;5046186;28;20310;-73
2022/01/14 10:15:44;;;;;;;;;;;-0.40;99.90;;;;;;4978653;28;19932;-72
2022/01/14 10:18:19;;;;;;;;;;;-0.30;99.90;;;;;;5033538;28;20403;-73
2022/01/14 10:20:50;;;;;;;;;;;-0.30;99.90;;;;;;4985557;28;19926;-72
2022/01/14 10:23:37;;;;;;;;;;;-0.10;99.90;;;;;;5022333;28;19959;-73
2022/01/14 10:26:04;;;;;;;;;;;0.00;99.90;;;;;;4991035;28;20020;-73
2022/01/14 10:28:36;;;;;;;;;;;0.20;99.90;;;;;;5052815;28;19932;-72
2022/01/14 10:31:03;;;;;;;;;;;0.20;99.90;;;;;;4981220;28;20392;-73
2022/01/14 10:33:35;;;;;;;;;;;0.40;99.90;;;;;;4997413;28;19932;-72
2022/01/14 10:36:02;;;;;;;;;;;0.50;99.90;;;;;;5004995;28;19964;-72
2022/01/14 10:38:37;;;;;;;;;;;0.70;99.90;;;;;;5054257;28;19995;-73
2022/01/14 10:41:09;;;;;;;;;;;0.80;99.90;;;;;;4988197;28;19929;-72
2022/01/14 10:43:41;;;;;;;;;;;0.90;99.90;;;;;;5025234;28;19948;-74
2022/01/14 10:46:12;;;;;;;;;;;1.00;99.90;;;;;;4992128;28;20417;-73
2022/01/14 10:48:40;;;;;;;;;;;1.10;99.90;;;;;;4999222;28;19925;-74
2022/01/14 10:51:14;;;;;;;;;;;1.20;99.90;;;;;;5038104;28;19963;-73
2022/01/14 10:53:50;;;;;;;;;;;1.30;99.90;;;;;;5015542;28;20009;-73
2022/01/14 10:56:23;;;;;;;;;;;1.40;99.90;;;;;;4954736;28;19933;-73
2022/01/14 10:58:58;;;;;;;;;;;1.40;99.90;;;;;;4970129;28;20308;-73
2022/01/14 11:01:31;;;;;;;;;;;1.50;99.90;;;;;;5006910;28;20019;-73
2022/01/14 11:04:10;;;;;;;;;;;1.60;99.90;;;;;;5006321;28;19934;-73
2022/01/14 11:06:40;;;;;;;;;;;1.70;99.90;;;;;;5037877;28;19932;-73
2022/01/14 11:09:08;;;;;;;;;;;1.80;99.90;;;;;;5058974;28;20401;-73
2022/01/14 11:11:41;;;;;;;;;;;1.80;99.90;;;;;;5045351;28;20406;-73
2022/01/14 11:14:16;;;;;;;;;;;1.90;99.90;;;;;;4993701;28;20018;-73
2022/01/14 11:16:43;;;;;;;;;;;2.10;99.90;;;;;;5013043;28;20016;-72
2022/01/14 11:19:10;;;;;;;;;;;2.30;99.90;;;;;;5008407;28;19929;-73
2022/01/14 11:24:30;;;;;;;;;;;2.50;99.90;;;;;;4976186;28;19965;-73
2022/01/14 11:27:06;;;;;;;;;;;2.60;99.90;;;;;;5034077;28;19936;-73
2022/01/14 11:29:35;;;;;;;;;;;2.70;99.90;;;;;;4964305;28;19926;-73
2022/01/14 11:32:03;;;;;;;;;;;2.70;99.90;;;;;;4982010;28;19976;-73
2022/01/14 11:34:35;;;;;;;;;;;2.80;99.90;;;;;;5024781;28;19931;-73
2022/01/14 11:37:03;;;;;;;;;;;2.80;99.90;;;;;;4992680;28;20364;-73
2022/01/14 11:39:38;;;;;;;;;;;2.90;99.90;;;;;;4992129;28;19926;-73
2022/01/14 11:42:09;;;;;;;;;;;3.00;99.90;;;;;;4982563;28;19940;-73
2022/01/14 11:44:54;;;;;;;;;;;3.10;99.90;;;;;;4969484;28;19926;-73
2022/01/14 11:47:24;;;;;;;;;;;3.10;99.90;;;;;;4952152;28;19996;-73
2022/01/14 11:49:57;;;;;;;;;;;3.20;99.90;;;;;;4940300;28;20389;-73
2022/01/14 11:52:34;;;;;;;;;;;3.30;99.90;;;;;;4986944;28;19983;-73
2022/01/14 11:55:15;;;;;;;;;;;3.40;99.90;;;;;;4979097;28;19926;-74
2022/01/14 11:57:45;;;;;;;;;;;3.60;99.90;;;;;;5008198;28;20025;-72
2022/01/14 12:03:10;;;;;;;;;;;3.90;99.90;;;;;;5056085;28;20414;-72
2022/01/14 12:05:55;;;;;;;;;;;4.10;99.90;;;;;;4986826;28;19925;-73
2022/01/14 12:08:30;;;;;;;;;;;4.20;99.90;;;;;;5006542;28;19926;-74
2022/01/14 12:11:05;;;;;;;;;;;4.30;99.90;;;;;;4972416;28;20021;-73
2022/01/14 12:13:48;;;;;;;;;;;4.40;99.90;;;;;;4974177;28;19932;-74
2022/01/14 12:19:09;;;;;;;;;;;4.60;99.90;;;;;;4991064;28;19932;-73
2022/01/14 12:21:42;;;;;;;;;;;4.60;99.90;;;;;;4992102;28;19965;-73
2022/01/14 12:24:16;;;;;;;;;;;4.60;99.90;;;;;;5038239;28;19973;-73
2022/01/14 12:26:52;;;;;;;;;;;4.70;99.90;;;;;;5076665;28;19924;-73
2022/01/14 12:29:44;;;;;;;;;;;4.80;99.90;;;;;;5026567;28;20418;-74
2022/01/14 12:32:12;;;;;;;;;;;5.00;99.90;;;;;;4987800;28;19969;-73
2022/01/14 12:34:44;;;;;;;;;;;5.10;99.90;;;;;;5049204;28;19924;-75
2022/01/14 12:37:23;;;;;;;;;;;5.10;99.90;;;;;;5016719;28;19976;-73
2022/01/14 12:39:51;;;;;;;;;;;5.20;99.90;;;;;;4996704;28;20477;-73
2022/01/14 12:42:23;;;;;;;;;;;5.30;99.90;;;;;;5029419;28;19937;-73
2022/01/14 12:44:58;;;;;;;;;;;5.40;99.90;;;;;;4988012;28;19932;-73
2022/01/14 12:47:36;;;;;;;;;;;5.40;99.90;;;;;;4976194;28;19976;-73
2022/01/14 12:50:10;;;;;;;;;;;5.50;99.90;;;;;;4973121;28;19933;-75
2022/01/14 12:52:50;;;;;;;;;;;5.50;99.90;;;;;;4991556;28;20278;-74
2022/01/14 12:55:24;;;;;;;;;;;5.60;99.90;;;;;;4973864;28;19971;-74
2022/01/14 12:57:55;;;;;;;;;;;5.50;99.90;;;;;;5046281;28;19928;-72
2022/01/14 13:00:23;;;;;;;;;;;5.60;99.90;;;;;;5007672;28;19931;-73
2022/01/14 13:02:49;;;;;;;;;;;5.60;99.90;;;;;;5063471;28;19981;-73
2022/01/14 13:05:19;;;;;;;;;;;5.50;99.90;;;;;;5055779;28;20367;-73
2022/01/14 13:07:46;;;;;;;;;;;5.50;99.90;;;;;;5027408;28;19924;-74
2022/01/14 13:10:18;;;;;;;;;;;5.50;99.90;;;;;;4996553;28;19926;-74
2022/01/14 13:12:50;;;;;;;;;;;5.50;99.90;;;;;;4991068;28;19974;-73
2022/01/14 13:15:26;;;;;;;;;;;5.40;99.90;;;;;;4974737;28;19935;-73
2022/01/14 13:18:08;;;;;;;;;;;5.40;99.90;;;;;;4989706;28;19930;-73
2022/01/14 13:20:40;;;;;;;;;;;5.50;99.90;;;;;;4979735;28;19929;-73
2022/01/14 13:23:08;;;;;;;;;;;5.50;99.90;;;;;;5009617;28;20016;-73
2022/01/14 13:25:39;;;;;;;;;;;5.50;99.90;;;;;;5044279;28;19934;-73
2022/01/14 13:28:11;;;;;;;;;;;5.50;99.90;;;;;;4990925;28;19926;-73
2022/01/14 13:30:44;;;;;;;;;;;5.50;99.90;;;;;;5074057;28;19930;-73
2022/01/14 13:33:16;;;;;;;;;;;5.50;99.90;;;;;;4992293;28;19926;-73
2022/01/14 13:35:45;;;;;;;;;;;5.50;99.90;;;;;;5045694;28;19924;-73
2022/01/14 13:38:13;;;;;;;;;;;5.40;99.90;;;;;;5024162;28;20031;-73
2022/01/14 13:40:53;;;;;;;;;;;5.40;99.90;;;;;;5075300;28;19934;-73
2022/01/14 13:43:22;;;;;;;;;;;5.50;99.90;;;;;;5061055;28;20035;-73
2022/01/14 13:45:52;;;;;;;;;;;5.50;99.90;;;;;;5037242;28;20024;-73
2022/01/14 13:48:25;;;;;;;;;;;5.50;99.90;;;;;;5009864;28;19936;-73
2022/01/14 13:51:04;;;;;;;;;;;5.50;99.90;;;;;;5005054;28;19932;-73
2022/01/14 13:53:41;;;;;;;;;;;5.50;99.90;;;;;;4973790;28;19926;-73
2022/01/14 13:56:14;;;;;;;;;;;5.50;99.90;;;;;;4973981;28;20029;-74
2022/01/14 13:58:56;;;;;;;;;;;5.60;99.90;;;;;;4963939;28;19926;-73
2022/01/14 14:01:24;;;;;;;;;;;5.60;99.90;;;;;;4987819;28;19972;-73
2022/01/14 14:04:14;;;;;;;;;;;5.60;99.90;;;;;;4985648;28;19925;-73
2022/01/14 14:06:56;;;;;;;;;;;5.70;99.90;;;;;;5063559;28;20384;-74
2022/01/14 14:09:33;;;;;;;;;;;5.60;99.90;;;;;;5045403;28;20015;-73
2022/01/14 14:17:59;;;;;;;;;;;5.70;99.90;;;;;;4971790;28;19926;-72
2022/01/14 14:20:26;;;;;;;;;;;5.80;99.90;;;;;;4985775;28;20016;-73
2022/01/14 14:23:10;;;;;;;;;;;5.80;99.90;;;;;;4998099;28;19925;-73
2022/01/14 14:25:42;;;;;;;;;;;5.80;99.90;;;;;;5069431;28;19930;-73
2022/01/14 14:28:15;;;;;;;;;;;5.70;99.90;;;;;;5007087;28;20384;-73
2022/01/14 14:30:43;;;;;;;;;;;5.60;99.90;;;;;;5047640;28;20380;-73
2022/01/14 14:33:16;;;;;;;;;;;5.50;99.90;;;;;;5037596;28;19924;-73
2022/01/14 14:35:48;;;;;;;;;;;5.30;99.90;;;;;;5010393;28;19926;-73
2022/01/14 14:38:23;;;;;;;;;;;5.10;99.90;;;;;;5059224;28;19929;-73
2022/01/14 14:40:51;;;;;;;;;;;4.90;99.90;;;;;;5006328;28;19967;-73
2022/01/14 14:43:19;;;;;;;;;;;4.80;99.90;;;;;;5046212;28;19925;-74
2022/01/14 14:45:52;;;;;;;;;;;4.70;99.90;;;;;;5042402;28;20401;-74
2022/01/14 14:48:18;;;;;;;;;;;4.50;99.90;;;;;;5075597;28;19930;-74
2022/01/14 14:50:46;;;;;;;;;;;4.30;99.90;;;;;;5011953;28;19930;-73
2022/01/14 14:53:18;;;;;;;;;;;4.20;99.90;;;;;;4999061;28;19932;-73
2022/01/14 14:55:50;;;;;;;;;;;4.10;99.90;;;;;;4983737;28;19932;-74
2022/01/14 14:58:21;;;;;;;;;;;3.90;99.90;;;;;;4979963;28;19926;-74
2022/01/14 15:00:48;;;;;;;;;;;3.70;99.90;;;;;;4976500;28;19933;-73
2022/01/14 15:03:21;;;;;;;;;;;3.60;99.90;;;;;;5028802;28;21247;-73
2022/01/14 15:05:53;;;;;;;;;;;3.40;99.90;;;;;;4981271;28;19936;-74
2022/01/14 15:08:25;;;;;;;;;;;3.30;99.90;;;;;;4972014;28;19936;-73
2022/01/14 15:10:57;;;;;;;;;;;3.20;99.90;;;;;;5000526;28;19939;-73
2022/01/14 15:13:29;;;;;;;;;;;3.10;99.90;;;;;;4983962;28;19933;-73
2022/01/14 15:16:23;;;;;;;;;;;3.00;99.90;;;;;;4971335;28;20288;-73
2022/01/14 15:18:48;;;;;;;;;;;2.90;99.90;;;;;;5000161;28;20356;-72
2022/01/14 15:21:19;;;;;;;;;;;2.90;99.90;;;;;;5081094;28;19934;-73